Time;durP1;ratioP1;P1;durP2;ratioP2;P2;SDS_P1;SDS_P2;PMS_P1;PMS_P2;Temp;Humidity;BMP_temperature;BMP_pressure;BME280_temperature;BME280_humidity;BME280_pressure;Samples;Min_cycle;Max_cycle;Signal;HPM_P1;HPM_P2
2022/07/06 00:00:35;;;;;;;2.25;1.50;;;;;;;26.07;48.23;100658.81;4935763;29;20494;-72
2022/07/06 00:03:05;;;;;;;6.50;1.40;;;;;;;25.85;47.91;100646.28;4930111;29;20101;-76
2022/07/06 00:05:34;;;;;;;1.88;1.30;;;;;;;25.78;46.94;100650.06;4934114;29;20059;-74
2022/07/06 00:08:02;;;;;;;2.55;1.48;;;;;;;25.74;47.08;100647.59;4933795;29;20118;-74
2022/07/06 00:10:31;;;;;;;1.95;1.55;;;;;;;25.73;46.91;100645.88;4931721;29;20106;-72
2022/07/06 00:12:59;;;;;;;1.60;1.33;;;;;;;25.70;45.87;100646.81;4933550;29;20056;-75
2022/07/06 00:15:28;;;;;;;2.50;1.40;;;;;;;25.70;48.18;100642.41;4929485;29;20080;-73
2022/07/06 00:17:56;;;;;;;1.95;1.27;;;;;;;25.70;48.65;100642.41;4930977;29;20064;-73
2022/07/06 00:20:27;;;;;;;1.48;1.30;;;;;;;25.75;49.49;100650.19;4927004;29;20048;-73
2022/07/06 00:22:55;;;;;;;2.03;1.40;;;;;;;25.76;48.49;100643.09;4926588;29;20047;-73
2022/07/06 00:25:24;;;;;;;2.95;1.52;;;;;;;25.70;48.45;100645.06;4926525;29;20559;-72
2022/07/06 00:27:52;;;;;;;2.35;1.60;;;;;;;25.70;49.69;100642.41;4934238;29;20106;-73
2022/07/06 00:30:21;;;;;;;3.28;1.50;;;;;;;25.70;47.87;100649.47;4926355;29;20137;-76
2022/07/06 00:32:49;;;;;;;8.93;1.70;;;;;;;25.63;48.28;100648.84;4926406;29;20173;-74
2022/07/06 00:35:18;;;;;;;2.78;1.48;;;;;;;25.47;48.32;100648.50;4929550;29;20146;-73
2022/07/06 00:37:48;;;;;;;4.57;1.52;;;;;;;25.38;48.98;100647.91;4930099;29;20060;-75
2022/07/06 00:40:17;;;;;;;3.08;1.92;;;;;;;25.22;49.45;100652.88;4930831;29;20074;-73
2022/07/06 00:42:47;;;;;;;2.28;1.80;;;;;;;25.11;50.24;100642.59;4930155;29;20055;-74
2022/07/06 00:45:17;;;;;;;3.55;1.60;;;;;;;25.00;50.51;100639.44;4933955;28;20060;-72
2022/07/06 00:47:46;;;;;;;2.47;1.73;;;;;;;24.94;50.71;100639.63;4933047;29;20565;-74
2022/07/06 00:50:18;;;;;;;3.63;1.80;;;;;;;24.87;50.77;100647.75;4931254;29;20052;-73
2022/07/06 00:52:49;;;;;;;4.10;1.60;;;;;;;24.81;51.21;100655.91;4926494;29;20048;-74
2022/07/06 00:55:20;;;;;;;3.33;1.90;;;;;;;24.79;51.54;100651.59;4932164;29;20048;-74
2022/07/06 00:57:49;;;;;;;3.72;1.40;;;;;;;24.75;51.75;100649.94;4928756;29;20079;-76
2022/07/06 01:00:20;;;;;;;5.40;1.50;;;;;;;24.66;51.99;100646.66;4938925;29;20537;-73
2022/07/06 01:02:49;;;;;;;2.80;1.80;;;;;;;24.54;52.22;100643.53;4932670;29;20118;-73
2022/07/06 01:05:18;;;;;;;1.90;1.40;;;;;;;24.45;52.54;100642.84;4932171;29;20107;-74
2022/07/06 01:07:50;;;;;;;2.17;1.60;;;;;;;24.41;53.18;100635.03;4935636;29;20052;-72
2022/07/06 01:10:20;;;;;;;3.30;1.63;;;;;;;24.36;53.12;100629.91;4932082;29;20142;-72
2022/07/06 01:12:49;;;;;;;2.08;1.55;;;;;;;24.34;54.12;100629.06;4929284;29;20488;-72
2022/07/06 01:15:19;;;;;;;1.88;1.42;;;;;;;24.34;54.26;100633.50;4928799;29;20059;-74
2022/07/06 01:17:48;;;;;;;2.88;1.30;;;;;;;24.32;55.39;100633.53;4930423;29;20059;-76
2022/07/06 01:20:20;;;;;;;3.05;1.60;;;;;;;24.31;55.84;100641.53;4928964;29;20055;-74
2022/07/06 01:22:50;;;;;;;1.77;1.43;;;;;;;24.27;56.55;100638.09;4930100;29;20107;-72
2022/07/06 01:25:19;;;;;;;2.17;1.42;;;;;;;24.21;57.33;100643.56;4931030;29;20043;-73
2022/07/06 01:27:48;;;;;;;2.67;1.42;;;;;;;24.14;56.71;100636.72;4940245;29;20683;-78
2022/07/06 01:30:18;;;;;;;2.17;1.70;;;;;;;24.07;56.92;100636.00;4918640;29;20490;-73
2022/07/06 01:32:48;;;;;;;2.67;1.52;;;;;;;24.02;57.69;100648.50;4931980;29;20509;-73
2022/07/06 01:35:19;;;;;;;3.55;1.50;;;;;;;23.97;58.10;100646.00;4929899;29;20052;-71
2022/07/06 01:37:47;;;;;;;2.60;1.50;;;;;;;23.91;58.91;100643.50;4937690;29;20513;-72
2022/07/06 01:40:16;;;;;;;2.63;1.17;;;;;;;23.83;59.29;100643.72;4934779;29;20103;-72
2022/07/06 01:42:44;;;;;;;1.85;1.25;;;;;;;23.78;57.46;100645.63;4931394;29;20051;-73
2022/07/06 01:45:13;;;;;;;1.60;1.30;;;;;;;23.72;57.13;100645.75;4932847;28;20083;-71
2022/07/06 01:47:41;;;;;;;2.10;1.30;;;;;;;23.64;57.81;100650.38;4931156;29;20725;-72
2022/07/06 01:50:10;;;;;;;2.55;1.20;;;;;;;23.58;57.09;100651.41;4929731;29;20490;-71
2022/07/06 01:52:41;;;;;;;1.90;1.30;;;;;;;23.55;57.27;100650.63;4928417;29;20051;-72
2022/07/06 01:55:10;;;;;;;2.45;1.30;;;;;;;23.49;57.29;100649.00;4928665;29;20059;-73
2022/07/06 01:57:38;;;;;;;2.33;1.38;;;;;;;23.45;57.68;100655.25;4929225;29;20494;-72
2022/07/06 02:00:09;;;;;;;2.50;1.27;;;;;;;23.40;58.23;100662.44;4929318;29;20048;-72
2022/07/06 02:02:38;;;;;;;1.73;1.23;;;;;;;23.36;58.23;100653.72;4932279;29;20498;-72
2022/07/06 02:05:06;;;;;;;1.85;1.38;;;;;;;23.32;58.92;100662.63;4930738;29;20044;-72
2022/07/06 02:07:35;;;;;;;2.05;1.20;;;;;;;23.28;59.76;100666.25;4927962;29;20458;-72
2022/07/06 02:10:06;;;;;;;2.35;1.67;;;;;;;23.26;60.11;100669.84;4930459;29;20059;-73
2022/07/06 02:12:34;;;;;;;2.85;1.58;;;;;;;23.21;62.62;100668.16;4932305;29;20103;-72
2022/07/06 02:15:03;;;;;;;2.50;1.52;;;;;;;23.13;63.65;100670.13;4932128;29;20047;-71
2022/07/06 02:17:31;;;;;;;5.07;1.65;;;;;;;23.08;63.94;100672.00;4926605;29;20051;-71
2022/07/06 02:20:00;;;;;;;2.45;1.70;;;;;;;23.03;65.44;100692.34;4935696;29;20106;-73
2022/07/06 02:22:28;;;;;;;3.10;2.00;;;;;;;22.98;67.34;100689.78;4931215;29;20047;-70
2022/07/06 02:24:57;;;;;;;2.55;1.88;;;;;;;22.93;66.83;100696.06;4930783;29;20055;-72
2022/07/06 02:27:27;;;;;;;2.65;1.95;;;;;;;22.88;67.82;100697.94;4931474;29;20066;-72
2022/07/06 02:29:55;;;;;;;3.60;1.80;;;;;;;22.74;67.27;100704.38;4928217;29;20047;-71
2022/07/06 02:32:24;;;;;;;1.90;1.70;;;;;;;22.55;68.12;100705.69;4930830;29;20043;-71
2022/07/06 02:34:53;;;;;;;4.63;2.10;;;;;;;22.36;66.13;100700.78;4925930;29;20060;-71
2022/07/06 02:37:22;;;;;;;5.13;2.17;;;;;;;22.20;65.92;100699.34;4931517;29;20048;-69
2022/07/06 02:39:50;;;;;;;4.68;1.98;;;;;;;22.15;66.59;100687.97;4921670;29;20052;-69
2022/07/06 02:42:19;;;;;;;4.13;1.90;;;;;;;22.08;67.23;100681.09;4922402;29;20131;-69
2022/07/06 02:44:49;;;;;;;4.20;2.17;;;;;;;22.05;68.14;100684.66;4927892;28;20115;-70
2022/07/06 02:47:17;;;;;;;2.60;1.85;;;;;;;22.03;68.37;100691.72;4932776;29;20051;-69
2022/07/06 02:49:46;;;;;;;3.78;2.00;;;;;;;21.97;68.51;100697.13;4918702;29;20107;-69
2022/07/06 02:52:14;;;;;;;2.88;2.10;;;;;;;21.90;69.12;100699.00;4920413;29;20166;-70
2022/07/06 02:54:43;;;;;;;3.17;1.92;;;;;;;21.79;69.71;100693.06;4927891;29;20044;-69
2022/07/06 02:57:11;;;;;;;6.82;2.10;;;;;;;21.70;70.78;100704.63;4930547;29;20152;-69
2022/07/06 02:59:40;;;;;;;2.30;1.60;;;;;;;21.66;71.02;100702.06;4932465;29;20040;-69
2022/07/06 03:02:10;;;;;;;3.28;1.70;;;;;;;21.63;70.36;100707.41;4932889;29;20050;-70
2022/07/06 03:04:39;;;;;;;1.92;1.52;;;;;;;21.58;70.58;100711.84;4935238;29;20051;-70
2022/07/06 03:07:07;;;;;;;3.35;1.80;;;;;;;21.50;70.77;100706.72;4936629;29;20462;-70
2022/07/06 03:09:36;;;;;;;4.13;1.90;;;;;;;21.45;71.10;100714.69;4930758;29;20066;-69
2022/07/06 03:12:05;;;;;;;2.20;1.73;;;;;;;21.42;71.71;100720.00;4930784;29;20048;-70
2022/07/06 03:14:33;;;;;;;2.85;1.60;;;;;;;21.36;71.69;100709.53;4934803;29;20208;-69
2022/07/06 03:17:02;;;;;;;2.75;1.88;;;;;;;21.30;71.96;100705.25;4931128;29;20048;-70
2022/07/06 03:19:32;;;;;;;3.78;1.90;;;;;;;21.28;71.99;100711.41;4934464;29;20154;-70
2022/07/06 03:22:00;;;;;;;2.90;1.83;;;;;;;21.23;72.24;100708.00;4941305;29;20414;-70
2022/07/06 03:24:29;;;;;;;2.22;1.70;;;;;;;21.13;72.50;100710.75;4930725;29;20137;-69
2022/07/06 03:26:57;;;;;;;3.38;1.60;;;;;;;21.07;72.03;100709.97;4936667;29;20517;-70
2022/07/06 03:29:26;;;;;;;2.20;1.52;;;;;;;21.02;73.61;100714.44;4937411;29;20047;-69
2022/07/06 03:31:54;;;;;;;3.47;1.50;;;;;;;20.96;73.87;100710.16;4932926;29;20493;-69
2022/07/06 03:34:23;;;;;;;2.63;1.90;;;;;;;20.92;75.34;100713.72;4934663;29;20446;-69
2022/07/06 03:36:53;;;;;;;3.58;1.88;;;;;;;20.87;74.65;100716.41;4932801;29;20048;-69
2022/07/06 03:39:21;;;;;;;2.70;1.70;;;;;;;20.85;74.36;100712.06;4938431;29;20039;-69
2022/07/06 03:41:50;;;;;;;3.15;1.75;;;;;;;20.83;75.05;100716.47;4930732;29;20051;-70
2022/07/06 03:44:18;;;;;;;4.10;2.10;;;;;;;20.80;74.69;100724.38;4928415;28;20132;-70
2022/07/06 03:46:47;;;;;;;3.20;1.70;;;;;;;20.75;75.89;100719.19;4927980;29;20056;-70
2022/07/06 03:49:15;;;;;;;2.30;1.70;;;;;;;20.71;76.03;100726.25;4930461;29;20059;-69
2022/07/06 03:51:44;;;;;;;2.38;1.95;;;;;;;20.68;75.46;100721.03;4927425;29;20531;-70
2022/07/06 03:54:14;;;;;;;3.42;2.00;;;;;;;20.67;75.08;100721.91;4930989;29;20056;-70
2022/07/06 03:56:42;;;;;;;3.92;1.80;;;;;;;20.67;75.55;100729.81;4928613;29;20056;-70
2022/07/06 03:59:11;;;;;;;1.88;1.58;;;;;;;20.66;76.34;100728.06;4932574;29;20537;-70
2022/07/06 04:01:39;;;;;;;3.78;2.75;;;;;;;20.68;76.24;100728.94;4931139;29;20103;-69
2022/07/06 04:04:08;;;;;;;3.75;1.90;;;;;;;20.67;76.19;100729.81;4925842;29;20103;-71
2022/07/06 04:06:36;;;;;;;4.35;2.90;;;;;;;20.66;75.74;100725.44;4926643;29;20052;-71
2022/07/06 04:09:05;;;;;;;3.58;2.40;;;;;;;20.62;75.32;100725.50;4934227;29;20055;-70
2022/07/06 04:11:35;;;;;;;4.03;1.75;;;;;;;20.58;76.15;100726.41;4924302;29;20509;-70
2022/07/06 04:14:04;;;;;;;4.07;1.83;;;;;;;20.52;75.55;100727.31;4935178;29;20059;-69
2022/07/06 04:16:32;;;;;;;2.35;1.63;;;;;;;20.50;75.94;100726.47;4932767;29;20062;-70
2022/07/06 04:19:00;;;;;;;2.72;1.70;;;;;;;20.49;77.10;100724.75;4926776;29;20056;-70
2022/07/06 04:21:29;;;;;;;3.00;2.10;;;;;;;20.50;77.91;100715.94;4940156;29;20043;-70
2022/07/06 04:23:57;;;;;;;2.20;1.65;;;;;;;20.48;77.76;100712.50;4927769;29;20491;-71
2022/07/06 04:26:26;;;;;;;2.17;1.75;;;;;;;20.47;77.78;100730.00;4927142;29;20100;-71
2022/07/06 04:28:56;;;;;;;3.08;2.17;;;;;;;20.45;77.87;100729.16;4943897;29;20067;-70
2022/07/06 04:31:25;;;;;;;3.63;2.20;;;;;;;20.45;77.73;100729.16;4933367;29;20052;-70
2022/07/06 04:33:53;;;;;;;3.45;1.77;;;;;;;20.44;78.17;100729.19;4947053;29;20047;-70
2022/07/06 04:36:22;;;;;;;2.38;1.83;;;;;;;20.43;78.41;100733.56;4938031;29;20051;-71
2022/07/06 04:38:50;;;;;;;3.75;2.00;;;;;;;20.39;78.75;100738.88;4939868;29;20467;-71
2022/07/06 04:41:19;;;;;;;3.45;1.88;;;;;;;20.36;78.91;100738.91;4930241;29;20054;-71
2022/07/06 04:43:47;;;;;;;2.55;1.67;;;;;;;20.26;78.77;100741.63;4931349;28;20557;-71
2022/07/06 04:46:19;;;;;;;2.67;2.05;;;;;;;20.25;79.90;100755.66;4911888;29;20055;-70
2022/07/06 04:48:47;;;;;;;4.97;2.30;;;;;;;20.18;80.25;100756.63;4911882;29;20048;-69
2022/07/06 04:51:16;;;;;;;4.25;2.38;;;;;;;20.16;80.75;100753.13;4911725;29;20052;-69
2022/07/06 04:53:45;;;;;;;3.33;2.20;;;;;;;20.18;80.72;100755.72;4910281;29;20078;-70
2022/07/06 04:56:14;;;;;;;3.83;2.35;;;;;;;20.19;81.35;100758.34;4911507;29;20052;-69
2022/07/06 04:58:42;;;;;;;3.70;1.88;;;;;;;20.20;80.72;100754.84;4910010;29;20572;-69
2022/07/06 05:01:11;;;;;;;4.32;1.92;;;;;;;20.22;81.13;100758.31;4910217;29;20048;-69
2022/07/06 05:03:47;;;;;;;3.55;2.10;;;;;;;20.23;80.87;100760.06;4909776;29;20051;-69
2022/07/06 05:06:18;;;;;;;4.68;2.60;;;;;;;20.23;80.66;100760.06;4908780;29;20060;-69
2022/07/06 05:08:46;;;;;;;5.07;2.80;;;;;;;20.27;80.73;100759.16;4913233;29;20123;-69
2022/07/06 05:11:15;;;;;;;3.35;2.20;;;;;;;20.28;81.05;100760.00;4911044;29;20060;-70
2022/07/06 05:13:43;;;;;;;6.63;2.53;;;;;;;20.29;81.25;100765.25;4913682;29;20052;-68
2022/07/06 05:16:12;;;;;;;3.97;2.70;;;;;;;20.22;80.82;100752.19;4912451;29;20471;-69
2022/07/06 05:18:40;;;;;;;4.95;3.35;;;;;;;20.30;80.56;100772.25;4914484;29;20048;-69
2022/07/06 05:21:10;;;;;;;4.50;2.88;;;;;;;20.32;80.68;100773.97;4912752;29;20052;-69
2022/07/06 05:23:39;;;;;;;4.20;3.00;;;;;;;20.33;80.46;100773.97;4897360;29;20048;-68
2022/07/06 05:26:08;;;;;;;3.08;2.40;;;;;;;20.35;80.14;100779.22;4910947;29;20056;-69
2022/07/06 05:28:36;;;;;;;3.25;2.15;;;;;;;20.37;80.08;100777.44;4915041;29;20100;-68
2022/07/06 05:31:05;;;;;;;5.68;2.45;;;;;;;20.38;80.32;100773.91;4911147;29;20052;-68
2022/07/06 05:33:33;;;;;;;5.18;2.40;;;;;;;20.38;80.36;100779.19;4908825;29;20104;-68
2022/07/06 05:36:02;;;;;;;4.43;2.30;;;;;;;20.37;80.19;100773.06;4909557;29;20455;-69
2022/07/06 05:38:32;;;;;;;2.67;2.22;;;;;;;20.38;80.14;100773.91;4913718;29;20111;-69
2022/07/06 05:41:01;;;;;;;4.40;2.15;;;;;;;20.36;80.41;100773.91;4905891;29;20281;-69
2022/07/06 05:43:29;;;;;;;3.33;2.67;;;;;;;20.37;80.30;100777.44;4910033;29;20044;-69
2022/07/06 05:45:58;;;;;;;3.63;1.95;;;;;;;20.39;80.28;100780.94;4930260;28;20091;-69
2022/07/06 05:51:11;;;;;;;3.63;2.05;;;;;;;20.39;80.06;100784.44;4931111;29;20075;-69
2022/07/06 05:53:41;;;;;;;3.30;1.98;;;;;;;20.39;80.56;100781.78;4928059;29;20099;-69
2022/07/06 05:56:10;;;;;;;4.60;2.10;;;;;;;20.38;80.18;100773.91;4928663;29;20573;-68
2022/07/06 05:58:38;;;;;;;2.83;2.10;;;;;;;20.36;80.18;100773.06;4931208;29;20047;-69
2022/07/06 06:01:08;;;;;;;3.00;2.10;;;;;;;20.35;80.85;100773.97;4928368;29;20055;-69
2022/07/06 06:03:37;;;;;;;3.38;1.98;;;;;;;20.34;80.62;100777.47;4925947;29;20138;-69
2022/07/06 06:06:05;;;;;;;3.38;2.20;;;;;;;20.34;80.69;100780.09;4926157;29;20091;-69
2022/07/06 06:08:34;;;;;;;2.42;1.75;;;;;;;20.33;81.56;100780.97;4930155;29;20047;-69
2022/07/06 06:11:04;;;;;;;3.80;2.40;;;;;;;20.30;81.50;100780.13;4932226;29;20554;-69
2022/07/06 06:13:33;;;;;;;3.75;2.28;;;;;;;20.28;81.94;100788.91;4927341;29;20048;-69
2022/07/06 06:16:01;;;;;;;2.75;2.05;;;;;;;20.23;82.41;100778.44;4927132;29;20044;-70
2022/07/06 06:18:30;;;;;;;2.45;1.90;;;;;;;20.21;82.76;100771.47;4929970;29;20048;-69
2022/07/06 06:20:58;;;;;;;2.58;1.83;;;;;;;20.21;83.11;100766.22;4924077;29;20052;-69
2022/07/06 06:23:27;;;;;;;2.45;2.05;;;;;;;20.22;82.95;100766.19;4931667;29;20048;-69
2022/07/06 06:25:55;;;;;;;4.28;2.60;;;;;;;20.22;83.50;100765.31;4922197;29;20048;-69
2022/07/06 06:28:25;;;;;;;4.65;2.30;;;;;;;20.21;84.00;100763.59;4931909;29;20055;-69
2022/07/06 06:30:54;;;;;;;2.88;2.17;;;;;;;20.19;83.91;100768.84;4928535;29;20574;-68
2022/07/06 06:33:23;;;;;;;3.45;2.35;;;;;;;20.18;84.84;100767.13;4929140;29;20048;-70
2022/07/06 06:35:52;;;;;;;2.97;2.08;;;;;;;20.16;84.91;100768.00;4928955;29;20917;-70
2022/07/06 06:38:25;;;;;;;5.18;1.98;;;;;;;20.14;85.32;100770.66;4930763;29;20523;-69
2022/07/06 06:40:54;;;;;;;3.60;2.00;;;;;;;20.11;86.30;100757.53;4924845;29;20526;-70
2022/07/06 06:43:24;;;;;;;3.78;1.88;;;;;;;20.08;86.81;100754.94;4920216;29;20711;-70
2022/07/06 06:45:53;;;;;;;3.15;1.92;;;;;;;20.09;87.40;100757.56;4928087;28;20060;-71
2022/07/06 06:48:22;;;;;;;3.92;2.42;;;;;;;20.08;87.06;100754.94;4926475;29;20442;-70
2022/07/06 06:50:50;;;;;;;3.60;2.10;;;;;;;20.08;87.01;100752.31;4923138;29;20051;-70
2022/07/06 06:53:19;;;;;;;5.57;2.15;;;;;;;20.06;87.15;100748.84;4926292;29;20700;-70
2022/07/06 06:55:47;;;;;;;4.47;1.92;;;;;;;20.03;87.88;100749.75;4926168;29;20546;-71
2022/07/06 06:58:16;;;;;;;3.40;2.50;;;;;;;20.02;88.50;100755.00;4926369;29;20055;-71
2022/07/06 07:00:47;;;;;;;4.15;2.13;;;;;;;19.99;88.80;100748.03;4926619;29;20477;-72
2022/07/06 07:03:15;;;;;;;4.45;2.35;;;;;;;19.98;89.25;100763.81;4932170;29;20120;-73
2022/07/06 07:05:44;;;;;;;7.25;2.90;;;;;;;19.96;90.25;100757.69;4928990;29;20052;-72
2022/07/06 07:08:12;;;;;;;3.70;2.42;;;;;;;19.93;90.17;100755.09;4930390;29;20044;-72
2022/07/06 07:10:41;;;;;;;3.50;2.28;;;;;;;19.89;90.73;100756.88;4926764;29;20095;-72
2022/07/06 07:13:09;;;;;;;3.03;2.28;;;;;;;19.88;91.85;100753.41;4928281;29;20047;-72
2022/07/06 07:15:38;;;;;;;3.78;2.47;;;;;;;19.89;92.56;100762.13;4925365;29;20115;-72
2022/07/06 07:18:08;;;;;;;4.38;2.75;;;;;;;19.88;92.19;100763.91;4928816;29;20151;-73
2022/07/06 07:20:37;;;;;;;4.63;2.85;;;;;;;19.88;92.41;100757.75;4936254;29;20047;-72
2022/07/06 07:23:05;;;;;;;7.05;2.60;;;;;;;19.86;92.26;100749.91;4930272;29;20124;-72
2022/07/06 07:25:34;;;;;;;5.32;2.80;;;;;;;19.86;92.85;100759.56;4933015;29;20054;-71
2022/07/06 07:28:02;;;;;;;4.18;2.88;;;;;;;19.82;93.56;100758.69;4939909;29;20040;-72
2022/07/06 07:30:31;;;;;;;5.13;2.83;;;;;;;19.77;93.98;100757.88;4933450;29;20048;-72
2022/07/06 07:33:00;;;;;;;4.95;2.80;;;;;;;19.76;94.29;100761.34;4932863;29;20051;-72
2022/07/06 07:35:31;;;;;;;5.43;2.90;;;;;;;19.75;94.53;100759.63;4932772;29;20135;-72
2022/07/06 07:37:59;;;;;;;3.25;2.58;;;;;;;19.75;94.71;100766.63;4940855;29;20569;-72
2022/07/06 07:40:28;;;;;;;5.45;3.22;;;;;;;19.72;94.71;100754.38;4932236;29;20043;-72
2022/07/06 07:42:57;;;;;;;4.78;3.30;;;;;;;19.75;95.05;100762.25;4931594;29;20055;-72
2022/07/06 07:45:26;;;;;;;3.58;2.75;;;;;;;19.73;95.19;100757.91;4934305;28;20107;-74
2022/07/06 07:47:55;;;;;;;5.25;2.67;;;;;;;19.72;96.30;100756.16;4933669;29;20067;-73
2022/07/06 07:50:23;;;;;;;6.82;3.50;;;;;;;19.70;96.76;100758.81;4944209;29;20051;-73
2022/07/06 07:52:53;;;;;;;6.00;3.40;;;;;;;19.70;97.16;100753.56;4923311;29;20698;-73
2022/07/06 07:55:22;;;;;;;4.97;3.08;;;;;;;19.70;98.24;100755.28;4945121;29;20062;-74
2022/07/06 07:57:50;;;;;;;4.88;2.72;;;;;;;19.68;99.38;100752.66;4935382;29;20494;-73
2022/07/06 08:00:21;;;;;;;4.15;2.65;;;;;;;19.67;100.00;100754.38;4933417;29;20103;-72
2022/07/06 08:02:49;;;;;;;5.93;2.90;;;;;;;19.67;100.00;100753.53;4932660;29;20044;-72
2022/07/06 08:05:18;;;;;;;5.47;3.05;;;;;;;19.69;100.00;100750.94;4931614;29;20494;-72
2022/07/06 08:07:47;;;;;;;5.40;3.10;;;;;;;19.66;100.00;100744.78;4932515;29;20094;-73
2022/07/06 08:10:24;;;;;;;4.60;2.72;;;;;;;19.60;100.00;100749.22;4930919;29;20111;-73
2022/07/06 08:12:52;;;;;;;5.32;2.90;;;;;;;19.63;100.00;100757.94;4933548;29;20125;-72
2022/07/06 08:15:21;;;;;;;5.28;3.42;;;;;;;19.59;100.00;100755.34;4931464;29;20044;-72
2022/07/06 08:17:49;;;;;;;7.60;2.95;;;;;;;19.58;100.00;100753.59;4931439;29;20047;-72
2022/07/06 08:20:18;;;;;;;4.82;3.08;;;;;;;19.55;100.00;100744.00;4940397;29;20066;-71
2022/07/06 08:22:46;;;;;;;6.43;3.05;;;;;;;19.53;100.00;100731.78;4935251;29;20055;-70
2022/07/06 08:25:16;;;;;;;4.00;2.45;;;;;;;19.51;100.00;100730.91;4934208;29;20128;-71
2022/07/06 08:27:45;;;;;;;3.97;2.85;;;;;;;19.46;100.00;100734.44;4938680;29;20134;-72
2022/07/06 08:30:14;;;;;;;4.75;2.75;;;;;;;19.43;100.00;100734.47;4932154;29;20056;-72
2022/07/06 08:32:43;;;;;;;3.70;3.00;;;;;;;19.42;100.00;100738.00;4939710;29;20106;-70
2022/07/06 08:35:13;;;;;;;5.65;3.25;;;;;;;19.37;100.00;100734.50;4931128;29;20052;-72
2022/07/06 08:37:41;;;;;;;3.22;2.67;;;;;;;19.34;100.00;100737.16;4938116;29;20110;-71
2022/07/06 08:40:12;;;;;;;3.55;2.42;;;;;;;19.32;100.00;100741.53;4931237;29;20048;-72
2022/07/06 08:42:43;;;;;;;4.68;2.85;;;;;;;19.32;100.00;100725.78;4932417;29;20095;-71
2022/07/06 08:45:12;;;;;;;4.50;2.45;;;;;;;19.29;100.00;100715.34;4926807;28;20059;-71
2022/07/06 08:47:44;;;;;;;4.03;2.55;;;;;;;19.26;100.00;100704.84;4932981;29;20657;-73
2022/07/06 08:50:14;;;;;;;3.72;2.50;;;;;;;19.26;100.00;100704.84;4935110;29;20110;-73
2022/07/06 08:52:43;;;;;;;3.65;2.70;;;;;;;19.25;100.00;100708.38;4937142;29;20566;-72
2022/07/06 08:55:12;;;;;;;5.53;2.78;;;;;;;19.24;100.00;100722.34;4929073;29;20147;-73
2022/07/06 08:57:43;;;;;;;3.95;2.70;;;;;;;19.26;100.00;100728.44;4926419;29;20068;-72
2022/07/06 09:00:12;;;;;;;4.18;2.88;;;;;;;19.24;100.00;100727.59;4931555;29;20444;-71
2022/07/06 09:02:42;;;;;;;4.43;2.72;;;;;;;19.22;100.00;100725.00;4926915;29;20052;-70
2022/07/06 09:05:13;;;;;;;3.63;2.60;;;;;;;19.19;100.00;100729.38;4929637;29;20051;-70
2022/07/06 09:07:43;;;;;;;4.30;2.75;;;;;;;19.20;100.00;100725.91;4933060;29;21078;-73
2022/07/06 09:10:11;;;;;;;4.68;2.80;;;;;;;19.19;100.00;100729.38;4930134;29;20050;-72
2022/07/06 09:12:41;;;;;;;5.43;2.72;;;;;;;19.19;100.00;100732.88;4926886;29;20522;-72
2022/07/06 09:15:10;;;;;;;4.75;2.60;;;;;;;19.17;100.00;100731.13;4925921;29;20498;-71
2022/07/06 09:17:40;;;;;;;5.55;3.97;;;;;;;19.12;100.00;100732.94;4929512;29;20688;-72
2022/07/06 09:20:10;;;;;;;3.80;2.88;;;;;;;19.16;100.00;100732.91;4931734;29;20052;-70
2022/07/06 09:22:39;;;;;;;4.00;2.80;;;;;;;19.17;100.00;100731.13;4930067;29;20060;-72
2022/07/06 09:25:09;;;;;;;4.40;2.70;;;;;;;19.13;100.00;100724.19;4932219;29;20102;-73
2022/07/06 09:27:45;;;;;;;6.03;2.70;;;;;;;19.16;100.00;100732.03;4933840;29;20039;-72
2022/07/06 09:30:16;;;;;;;4.15;2.90;;;;;;;19.17;100.00;100731.13;4930851;29;20054;-72
2022/07/06 09:32:45;;;;;;;4.30;2.70;;;;;;;19.15;100.00;100728.53;4930361;29;20047;-72
2022/07/06 09:35:25;;;;;;;4.70;2.83;;;;;;;19.15;100.00;100743.38;4931726;29;20043;-71
2022/07/06 09:38:08;;;;;;;5.93;2.83;;;;;;;19.15;100.00;100732.91;4932934;29;20490;-71
2022/07/06 09:40:39;;;;;;;5.03;2.70;;;;;;;19.15;100.00;100727.66;4929076;29;20637;-71
2022/07/06 09:43:17;;;;;;;3.88;2.72;;;;;;;19.13;100.00;100727.69;4932845;29;20103;-71
2022/07/06 09:45:47;;;;;;;4.32;2.88;;;;;;;19.13;100.00;100737.31;4934342;28;20055;-72
2022/07/06 09:48:18;;;;;;;4.25;3.00;;;;;;;19.11;100.00;100744.31;4927904;29;20052;-72
2022/07/06 09:50:48;;;;;;;3.63;2.70;;;;;;;19.04;100.00;100749.56;4929201;29;20052;-71
2022/07/06 09:53:17;;;;;;;4.00;2.67;;;;;;;18.98;100.00;100746.13;4929338;29;20052;-71
2022/07/06 09:55:47;;;;;;;3.38;2.60;;;;;;;18.94;100.00;100745.25;4929318;29;20051;-71
2022/07/06 09:58:18;;;;;;;4.25;3.10;;;;;;;18.91;100.00;100734.78;4931823;29;20652;-71
2022/07/06 10:00:47;;;;;;;4.60;2.97;;;;;;;18.93;100.00;100737.41;4930257;29;20060;-70
2022/07/06 10:03:17;;;;;;;3.78;2.85;;;;;;;18.95;100.00;100728.66;4930021;29;20047;-71
2022/07/06 10:05:47;;;;;;;5.53;2.75;;;;;;;18.99;100.00;100734.75;4931994;29;20079;-71
2022/07/06 10:08:18;;;;;;;5.05;2.58;;;;;;;19.02;100.00;100732.13;4929518;29;20058;-72
2022/07/06 10:10:48;;;;;;;4.25;2.88;;;;;;;19.03;100.00;100729.50;4938665;29;20056;-71
2022/07/06 10:13:23;;;;;;;3.65;2.65;;;;;;;19.04;100.00;100735.59;4930808;29;20047;-71
2022/07/06 10:15:52;;;;;;;4.30;3.00;;;;;;;19.03;100.00;100732.13;4931338;29;20637;-72
2022/07/06 10:18:21;;;;;;;4.63;2.72;;;;;;;19.03;100.00;100736.47;4930126;29;20070;-72
2022/07/06 10:20:50;;;;;;;4.47;2.83;;;;;;;18.98;100.00;100722.50;4931241;29;20062;-72
2022/07/06 10:23:19;;;;;;;4.85;2.70;;;;;;;19.04;100.00;100735.59;4927546;29;20581;-72
2022/07/06 10:25:49;;;;;;;4.30;2.90;;;;;;;19.03;100.00;100739.97;4929183;29;20569;-72
2022/07/06 10:28:21;;;;;;;3.22;2.30;;;;;;;19.03;100.00;100739.09;4932236;29;20278;-73
2022/07/06 10:30:52;;;;;;;4.72;3.00;;;;;;;19.01;100.00;100733.88;4926465;29;20116;-73
2022/07/06 10:33:20;;;;;;;4.68;2.38;;;;;;;19.01;100.00;100733.88;4942572;29;20047;-72
2022/07/06 10:35:49;;;;;;;7.95;2.85;;;;;;;19.01;100.00;100739.13;4934033;29;20569;-72
2022/07/06 10:38:19;;;;;;;3.90;2.65;;;;;;;19.01;100.00;100728.63;4927094;29;20103;-73
2022/07/06 10:41:05;;;;;;;4.65;2.97;;;;;;;18.99;100.00;100725.13;4933932;28;20056;-72
2022/07/06 10:43:36;;;;;;;5.03;2.50;;;;;;;18.98;100.00;100725.13;4928219;29;20047;-72
2022/07/06 10:46:09;;;;;;;4.65;2.40;;;;;;;18.95;100.00;100727.78;4928643;28;20060;-72
2022/07/06 10:48:38;;;;;;;4.05;2.95;;;;;;;18.95;100.00;100728.66;4937307;29;20039;-72
2022/07/06 10:51:07;;;;;;;4.78;2.60;;;;;;;18.97;100.00;100729.53;4939857;29;20099;-71
2022/07/06 10:53:37;;;;;;;5.68;2.97;;;;;;;18.94;100.00;100732.13;4935321;29;20494;-72
2022/07/06 10:56:07;;;;;;;6.05;3.05;;;;;;;18.93;100.00;100722.53;4933839;29;20048;-72
2022/07/06 10:58:50;;;;;;;5.63;2.75;;;;;;;18.94;100.00;100719.03;4934357;29;20048;-72
2022/07/06 11:01:20;;;;;;;4.93;2.78;;;;;;;18.94;100.00;100716.41;4934987;29;20063;-72
2022/07/06 11:03:50;;;;;;;6.00;2.90;;;;;;;18.93;100.00;100717.31;4941015;29;20106;-72
2022/07/06 11:06:20;;;;;;;4.78;3.00;;;;;;;18.91;100.00;100707.69;4948581;29;20043;-72
2022/07/06 11:08:55;;;;;;;4.97;3.05;;;;;;;18.91;100.00;100707.69;4922428;29;20426;-73
2022/07/06 11:11:26;;;;;;;7.82;3.30;;;;;;;18.90;100.00;100712.09;4927674;29;20051;-72
2022/07/06 11:14:02;;;;;;;7.22;3.72;;;;;;;18.88;100.00;100715.59;4934105;29;20498;-72
2022/07/06 11:16:34;;;;;;;9.10;3.65;;;;;;;18.87;100.00;100706.84;4934278;29;20071;-70
2022/07/06 11:19:12;;;;;;;4.82;3.22;;;;;;;18.82;100.00;100703.38;4934169;29;20048;-71
2022/07/06 11:21:45;;;;;;;6.30;3.17;;;;;;;18.86;100.00;100714.72;4945045;29;20479;-70
2022/07/06 11:24:15;;;;;;;6.53;3.30;;;;;;;18.84;100.00;100718.22;4933755;29;20064;-72
2022/07/06 11:26:46;;;;;;;5.40;3.17;;;;;;;18.84;100.00;100717.34;4934554;29;20055;-71
2022/07/06 11:29:20;;;;;;;8.43;3.25;;;;;;;18.82;100.00;100713.84;4932313;29;20122;-72
2022/07/06 11:31:50;;;;;;;8.10;3.63;;;;;;;18.77;100.00;100719.13;4936672;29;20047;-71
2022/07/06 11:34:21;;;;;;;4.30;3.20;;;;;;;18.76;100.00;100719.09;4932192;29;20044;-71